UUOO/VOZ METAR and TAF weather

Enter ICAO airport designator
Station Type Date Time Source
UUOO METAR 2020/09/20 01:00 UTC NOAA

UUOO 200100Z 29005MPS CAVOK 07/05 Q1014 R30/090070 NOSIG RMK QFE747


Station Type Date Time Source
UUOO Decoded METAR 2020/09/20 01:00 UTC NOAA

Voronez, Russia (UUOO) 51-39N 039-15E 104M
Sep 19, 2020 - 09:00 PM EDT / 2020.09.20 0100 UTC
Wind: from the WNW (290 degrees) at 11 MPH (10 KT):0
Visibility: greater than 7 mile(s):0
Temperature: 44 F (7 C)
Dew Point: 41 F (5 C)
Relative Humidity: 87%
Pressure (altimeter): 29.94 in. Hg (1014 hPa)
ob: UUOO 200100Z 29005MPS CAVOK 07/05 Q1014 R30/090070 NOSIG RMK QFE747
cycle: 1

Station Type Date Time Source
UUOO TAF 2019/08/12 03:33 UTC NOAA

TAF COR TAF COR UUOO 120159 1203/1212 31003MPS CAVOK

Example: see airport list